createdAt,value
2022-10-28T00:00:09.182Z,962.8929443
2022-10-28T00:01:09.683Z,962.9157715
2022-10-28T00:02:10.133Z,962.9458008
2022-10-28T00:03:10.532Z,962.9561768
2022-10-28T00:04:10.960Z,962.9414063
2022-10-28T00:05:11.442Z,963.0081787
2022-10-28T00:06:11.881Z,962.991394
2022-10-28T00:07:12.379Z,963.0377197
2022-10-28T00:08:12.851Z,962.9995117
2022-10-28T00:09:14.086Z,962.9958496
2022-10-28T00:10:14.629Z,963.0262451
2022-10-28T00:11:45.663Z,963.0001831
2022-10-28T00:12:46.129Z,962.9887695
2022-10-28T00:13:46.565Z,962.9810791
2022-10-28T00:14:47.797Z,962.984375
2022-10-28T00:15:48.253Z,962.9467163
2022-10-28T00:16:48.757Z,962.9523315
2022-10-28T00:17:49.252Z,962.9326782
2022-10-28T00:18:49.742Z,962.9779053
2022-10-28T00:19:50.838Z,962.9338989
2022-10-28T00:20:51.339Z,962.9550781
2022-10-28T00:21:51.800Z,962.9827271
2022-10-28T00:22:52.306Z,962.9718628
2022-10-28T00:23:52.749Z,962.9554443
2022-10-28T00:24:53.873Z,962.9858398
2022-10-28T00:25:54.323Z,962.9832153
2022-10-28T00:26:54.761Z,962.9567261
2022-10-28T00:27:55.628Z,962.9777832
2022-10-28T00:28:56.008Z,962.9679565
2022-10-28T00:29:57.299Z,962.9812012
2022-10-28T00:30:57.866Z,962.9793701
2022-10-28T00:31:58.301Z,962.9212646
2022-10-28T00:32:58.801Z,962.9501343
2022-10-28T00:33:59.205Z,962.9799805
2022-10-28T00:34:59.649Z,962.9276733
2022-10-28T00:36:03.200Z,962.9418945
2022-10-28T00:37:00.580Z,962.9711914
2022-10-28T00:38:01.076Z,962.973877
2022-10-28T00:39:01.560Z,962.9564819
2022-10-28T00:40:02.879Z,962.9439087
2022-10-28T00:41:03.330Z,962.9575195
2022-10-28T00:42:03.821Z,962.9678345
2022-10-28T00:43:04.241Z,962.9380493
2022-10-28T00:44:04.709Z,962.930481
2022-10-28T00:45:05.848Z,962.9195557
2022-10-28T00:46:06.300Z,962.8917236
2022-10-28T00:47:06.796Z,962.8897095
2022-10-28T00:48:07.267Z,962.927124
2022-10-28T00:49:07.729Z,962.8434448
2022-10-28T00:50:08.843Z,962.9135132
2022-10-28T00:51:09.293Z,962.8406372
2022-10-28T00:52:09.815Z,962.8634644
2022-10-28T00:53:10.235Z,962.7873535
2022-10-28T00:54:10.688Z,962.8150024
2022-10-28T00:55:11.857Z,962.8139038
2022-10-28T00:56:12.466Z,962.7834473
2022-10-28T00:57:12.911Z,962.8220215
2022-10-28T00:58:13.389Z,962.7971191
2022-10-28T00:59:14.591Z,962.8384399
2022-10-28T01:00:45.402Z,962.8178101
2022-10-28T01:01:46.008Z,962.8659668
2022-10-28T01:02:46.445Z,962.8584595
2022-10-28T01:03:46.816Z,962.8547363
2022-10-28T01:04:47.247Z,962.9232788
2022-10-28T01:05:47.706Z,962.9313965
2022-10-28T01:06:48.168Z,962.9486084
2022-10-28T01:07:49.619Z,962.951416
2022-10-28T01:08:50.045Z,963.0036011
2022-10-28T01:09:51.326Z,962.9748535
2022-10-28T01:10:51.792Z,963.0279541
2022-10-28T01:11:52.249Z,963.0731201
2022-10-28T01:12:53.202Z,963.0275269
2022-10-28T01:13:53.213Z,962.9801636
2022-10-28T01:14:53.773Z,962.9639282
2022-10-28T01:15:54.251Z,962.9996948
2022-10-28T01:16:55.607Z,963.0046387
2022-10-28T01:17:56.113Z,962.9859619
2022-10-28T01:18:56.569Z,962.967041
2022-10-28T01:19:57.820Z,962.9714355
2022-10-28T01:20:58.339Z,962.9403076
2022-10-28T01:21:58.820Z,962.887207
2022-10-28T01:22:59.283Z,962.8986206
2022-10-28T01:23:59.727Z,962.8903198
2022-10-28T01:25:00.194Z,962.9024048
2022-10-28T01:26:00.681Z,962.8964233
2022-10-28T01:27:01.136Z,962.9475098
2022-10-28T01:28:01.597Z,962.9528198
2022-10-28T01:29:02.046Z,962.956543
2022-10-28T01:30:03.096Z,962.9398193
2022-10-28T01:31:03.543Z,962.930481
2022-10-28T01:32:04.021Z,962.9407959
2022-10-28T01:33:04.540Z,962.9281006
2022-10-28T01:34:05.007Z,962.9570923
2022-10-28T01:35:05.463Z,962.9733887
2022-10-28T01:36:05.910Z,962.9765625
2022-10-28T01:37:06.430Z,962.9859619
2022-10-28T01:38:06.883Z,962.9900513
2022-10-28T01:39:07.363Z,963.0004883
2022-10-28T01:40:08.300Z,962.9927979
2022-10-28T01:41:08.752Z,962.9432983
2022-10-28T01:42:09.231Z,962.8989258
2022-10-28T01:43:09.706Z,962.8851318
2022-10-28T01:44:10.177Z,962.9134521
2022-10-28T01:45:10.657Z,962.9199829
2022-10-28T01:46:11.305Z,962.8879395
2022-10-28T01:47:11.798Z,962.9156494
2022-10-28T01:48:12.458Z,962.9210815
2022-10-28T01:49:13.164Z,962.9102173
2022-10-28T01:50:44.603Z,962.9053345
2022-10-28T01:51:45.060Z,962.8768921
2022-10-28T01:52:46.143Z,962.8660889
2022-10-28T01:53:46.766Z,962.8856812
2022-10-28T01:54:47.796Z,962.9035645
2022-10-28T01:55:48.517Z,962.9921875
2022-10-28T01:56:49.039Z,962.942627
2022-10-28T01:57:49.540Z,962.9467163
2022-10-28T01:58:50.110Z,962.9313965
2022-10-28T01:59:51.601Z,962.9060059
2022-10-28T02:00:52.446Z,962.8928833
2022-10-28T02:01:52.986Z,962.928833
2022-10-28T02:02:53.360Z,962.9076538
2022-10-28T02:03:53.747Z,962.9135132
2022-10-28T02:04:54.268Z,962.9646606
2022-10-28T02:05:54.725Z,962.9489136
2022-10-28T02:06:55.199Z,962.9623413
2022-10-28T02:07:55.701Z,962.927124
2022-10-28T02:08:56.181Z,962.9058838
2022-10-28T02:09:57.605Z,962.894043
2022-10-28T02:10:58.152Z,962.8847046
2022-10-28T02:11:58.578Z,962.8657837
2022-10-28T02:12:59.065Z,962.882019
2022-10-28T02:13:59.518Z,962.8972168
2022-10-28T02:15:00.053Z,962.8562622
2022-10-28T02:16:00.454Z,962.852478
2022-10-28T02:17:01.006Z,962.8171997
2022-10-28T02:18:02.133Z,962.7906494
2022-10-28T02:19:02.594Z,962.8192139
2022-10-28T02:20:03.589Z,962.852417
2022-10-28T02:21:04.103Z,962.8595581
2022-10-28T02:22:04.625Z,962.8343506
2022-10-28T02:23:05.147Z,962.8740845
2022-10-28T02:24:05.599Z,962.8297119
2022-10-28T02:25:06.820Z,962.8305664
2022-10-28T02:26:07.297Z,962.824585
2022-10-28T02:27:07.805Z,962.8115845
2022-10-28T02:28:08.385Z,962.8485718
2022-10-28T02:29:08.727Z,962.7963867
2022-10-28T02:30:10.099Z,962.814209
2022-10-28T02:31:10.630Z,962.8146973
2022-10-28T02:32:11.063Z,962.769043
2022-10-28T02:33:11.557Z,962.7816162
2022-10-28T02:34:12.007Z,962.7789307
2022-10-28T02:35:12.515Z,962.7070923
2022-10-28T02:36:13.399Z,962.7581177
2022-10-28T02:37:44.153Z,962.7901611
2022-10-28T02:38:44.670Z,962.7858887
2022-10-28T02:39:45.125Z,962.7720337
2022-10-28T02:40:46.396Z,962.7971191
2022-10-28T02:41:46.856Z,962.7824707
2022-10-28T02:42:47.297Z,962.774353
2022-10-28T02:43:47.797Z,962.7614136
2022-10-28T02:44:48.231Z,962.704834
2022-10-28T02:45:49.334Z,962.6870117
2022-10-28T02:46:49.826Z,962.6706543
2022-10-28T02:47:50.657Z,962.6598511
2022-10-28T02:48:51.127Z,962.6447144
2022-10-28T02:49:51.559Z,962.7064819
2022-10-28T02:50:52.895Z,962.678772
2022-10-28T02:51:53.314Z,962.6716309
2022-10-28T02:52:54.064Z,962.6859131
2022-10-28T02:53:54.195Z,962.6696167
2022-10-28T02:54:54.694Z,962.6947021
2022-10-28T02:55:55.871Z,962.6889648
2022-10-28T02:56:56.351Z,962.678833
2022-10-28T02:57:56.830Z,962.6884155
2022-10-28T02:58:57.301Z,962.7313843
2022-10-28T02:59:57.735Z,962.6660767
2022-10-28T03:00:58.979Z,962.657959
2022-10-28T03:01:59.744Z,962.6574707
2022-10-28T03:03:00.086Z,962.6379395
2022-10-28T03:04:00.650Z,962.7154541
2022-10-28T03:05:01.138Z,962.7112427
2022-10-28T03:06:01.624Z,962.7427368
2022-10-28T03:07:02.152Z,962.755127
2022-10-28T03:08:02.578Z,962.7362671
2022-10-28T03:09:03.061Z,962.727478
2022-10-28T03:10:04.150Z,962.7746582
2022-10-28T03:11:04.568Z,962.7242432
2022-10-28T03:12:05.027Z,962.7790527
2022-10-28T03:13:05.513Z,962.7496948
2022-10-28T03:14:05.966Z,962.7437744
2022-10-28T03:15:07.334Z,962.6928101
2022-10-28T03:16:07.791Z,962.6975098
2022-10-28T03:17:08.333Z,962.7137451
2022-10-28T03:18:08.788Z,962.7220459
2022-10-28T03:20:10.347Z,962.7371826
2022-10-28T03:21:11.607Z,962.7249756
2022-10-28T03:22:12.068Z,962.6974487
2022-10-28T03:23:43.171Z,962.730957
2022-10-28T03:24:43.695Z,962.732605
2022-10-28T03:25:44.162Z,962.732666
2022-10-28T03:26:44.762Z,962.7874756
2022-10-28T03:27:45.357Z,962.7173462
2022-10-28T03:28:45.898Z,962.7293091
2022-10-28T03:29:47.123Z,962.7178955
2022-10-28T03:30:47.621Z,962.7151489
2022-10-28T03:31:48.256Z,962.7184448
2022-10-28T03:32:49.425Z,962.7467041
2022-10-28T03:33:49.994Z,962.75
2022-10-28T03:34:50.562Z,962.8035889
2022-10-28T03:35:51.007Z,962.7612305
2022-10-28T03:36:51.559Z,962.7937622
2022-10-28T03:37:52.102Z,962.78125
2022-10-28T03:38:52.754Z,962.7698975
2022-10-28T03:39:53.288Z,962.7860718
2022-10-28T03:40:53.785Z,962.8161011
2022-10-28T03:41:55.107Z,962.7965088
2022-10-28T03:42:56.057Z,962.7352295
2022-10-28T03:43:56.224Z,962.7709961
2022-10-28T03:44:56.824Z,962.7617188
2022-10-28T03:45:58.145Z,962.7633057
2022-10-28T03:46:58.581Z,962.7601318
2022-10-28T03:47:59.111Z,962.7020874
2022-10-28T03:48:59.648Z,962.7154541
2022-10-28T03:50:00.264Z,962.7406006
2022-10-28T03:51:01.332Z,962.6781006
2022-10-28T03:52:01.788Z,962.6651611
2022-10-28T03:53:03.231Z,962.6456299
2022-10-28T03:54:03.752Z,962.6325073
2022-10-28T03:55:04.327Z,962.6353149
2022-10-28T03:56:04.828Z,962.6102295
2022-10-28T03:57:05.311Z,962.588623
2022-10-28T03:58:05.886Z,962.5619507
2022-10-28T03:59:06.481Z,962.6074829
2022-10-28T04:00:07.087Z,962.5706177
2022-10-28T04:01:08.649Z,962.5708008
2022-10-28T04:02:09.063Z,962.588623
2022-10-28T04:03:09.404Z,962.6781006
2022-10-28T04:04:09.863Z,962.6217041
2022-10-28T04:05:10.388Z,962.6079712
2022-10-28T04:06:10.979Z,962.6112671
2022-10-28T04:07:11.585Z,962.6949463
2022-10-28T04:08:42.624Z,962.6802979
2022-10-28T04:09:43.164Z,962.6732178
2022-10-28T04:10:47.138Z,962.6015625
2022-10-28T04:11:45.195Z,962.6220093
2022-10-28T04:12:45.654Z,962.5657959
2022-10-28T04:13:46.158Z,962.6171875
2022-10-28T04:14:46.677Z,962.6161499
2022-10-28T04:15:47.253Z,962.6461182
2022-10-28T04:16:47.763Z,962.7008057
2022-10-28T04:17:48.269Z,962.6754761
2022-10-28T04:18:48.765Z,962.7219238
2022-10-28T04:19:49.199Z,962.71875
2022-10-28T04:20:50.663Z,962.7388916
2022-10-28T04:21:51.333Z,962.6992188
2022-10-28T04:22:54.615Z,962.7584229
2022-10-28T04:23:52.297Z,962.7446899
2022-10-28T04:24:53.609Z,962.6900024
2022-10-28T04:25:54.312Z,962.727478
2022-10-28T04:26:54.816Z,962.7235718
2022-10-28T04:27:55.595Z,962.7235718
2022-10-28T04:28:55.809Z,962.7561646
2022-10-28T04:29:56.304Z,962.7203979
2022-10-28T04:30:57.700Z,962.8040771
2022-10-28T04:31:58.246Z,962.774231
2022-10-28T04:32:58.827Z,962.7529907
2022-10-28T04:33:59.352Z,962.7295532
2022-10-28T04:34:59.849Z,962.772644
2022-10-28T04:36:00.323Z,962.7584229
2022-10-28T04:37:00.889Z,962.7542114
2022-10-28T04:38:01.453Z,962.7178345
2022-10-28T04:39:01.940Z,962.722168
2022-10-28T04:40:03.352Z,962.6994019
2022-10-28T04:41:03.839Z,962.7047729
2022-10-28T04:42:04.478Z,962.7185669
2022-10-28T04:43:08.494Z,962.7140503
2022-10-28T04:44:05.504Z,962.7288818
2022-10-28T04:45:06.019Z,962.7088013
2022-10-28T04:46:06.472Z,962.6652832
2022-10-28T04:47:07.017Z,962.6793823
2022-10-28T04:48:07.591Z,962.7098389
2022-10-28T04:49:08.164Z,962.6790771
2022-10-28T04:50:09.353Z,962.710083
2022-10-28T04:51:10.618Z,962.7567749
2022-10-28T04:52:13.452Z,962.7009277
2022-10-28T04:53:42.179Z,962.7302246
2022-10-28T04:54:43.672Z,962.6928101
2022-10-28T04:55:44.138Z,962.6702881
2022-10-28T04:56:44.604Z,962.6237793
2022-10-28T04:57:45.104Z,962.6687622
2022-10-28T04:58:45.659Z,962.7192993
2022-10-28T04:59:47.141Z,962.6541138
2022-10-28T05:00:47.591Z,962.7078857
2022-10-28T05:01:48.992Z,962.7037354
2022-10-28T05:02:49.383Z,962.727478
2022-10-28T05:03:49.946Z,962.7503052
2022-10-28T05:04:50.615Z,962.6828613
2022-10-28T05:05:51.148Z,962.6828613
2022-10-28T05:06:51.655Z,962.6585693
2022-10-28T05:07:52.392Z,962.6635742
2022-10-28T05:08:52.942Z,962.6574707
2022-10-28T05:09:53.530Z,962.6624146
2022-10-28T05:10:54.640Z,962.661377
2022-10-28T05:11:55.144Z,962.6738892
2022-10-28T05:12:55.664Z,962.6771851
2022-10-28T05:13:56.212Z,962.6657715
2022-10-28T05:14:56.774Z,962.6657715
2022-10-28T05:15:57.355Z,962.685791
2022-10-28T05:16:58.879Z,962.6842041
2022-10-28T05:17:59.357Z,962.6940918
2022-10-28T05:18:59.831Z,962.6810303
2022-10-28T05:20:00.439Z,962.651123
2022-10-28T05:21:01.670Z,962.6813965
2022-10-28T05:22:02.189Z,962.6642456
2022-10-28T05:23:02.697Z,962.6625977
2022-10-28T05:24:03.263Z,962.6310425
2022-10-28T05:25:04.409Z,962.6532593
2022-10-28T05:26:04.965Z,962.6256104
2022-10-28T05:27:05.548Z,962.6662598
2022-10-28T05:28:06.049Z,962.6646729
2022-10-28T05:29:06.541Z,962.6246948
2022-10-28T05:30:07.154Z,962.6027832
2022-10-28T05:31:08.649Z,962.5855713
2022-10-28T05:32:09.354Z,962.5773926
2022-10-28T05:33:09.877Z,962.565918
2022-10-28T05:34:10.467Z,962.5463257
2022-10-28T05:35:41.718Z,962.5404663
2022-10-28T05:36:42.263Z,962.5328369
2022-10-28T05:37:42.766Z,962.5338135
2022-10-28T05:38:44.147Z,962.5328369
2022-10-28T05:39:44.625Z,962.5289307
2022-10-28T05:40:45.248Z,962.4953003
2022-10-28T05:41:46.578Z,962.4620361
2022-10-28T05:42:47.110Z,962.4490356
2022-10-28T05:43:47.605Z,962.4470215
2022-10-28T05:44:48.068Z,962.4685669
2022-10-28T05:45:48.610Z,962.4611206
2022-10-28T05:46:49.241Z,962.5084229
2022-10-28T05:47:49.831Z,962.4751587
2022-10-28T05:48:50.606Z,962.491394
2022-10-28T05:49:51.083Z,962.477356
2022-10-28T05:50:51.572Z,962.4762573
2022-10-28T05:51:52.983Z,962.5050049
2022-10-28T05:52:53.537Z,962.477356
2022-10-28T05:53:54.030Z,962.4852905
2022-10-28T05:54:54.510Z,962.4707642
2022-10-28T05:55:54.992Z,962.4620972
2022-10-28T05:56:55.596Z,962.4985962
2022-10-28T05:57:56.761Z,962.5328369
2022-10-28T05:58:56.785Z,962.5401611
2022-10-28T05:59:57.328Z,962.5495605
2022-10-28T06:00:57.835Z,962.5804443
2022-10-28T06:01:58.970Z,962.5690918
2022-10-28T06:02:59.538Z,962.5445557
2022-10-28T06:04:00.182Z,962.5097046
2022-10-28T06:05:01.130Z,962.5412598
2022-10-28T06:06:01.714Z,962.5267334
2022-10-28T06:07:02.199Z,962.5739136
2022-10-28T06:08:02.897Z,962.6081543
2022-10-28T06:09:03.408Z,962.6161499
2022-10-28T06:10:03.971Z,962.5987549
2022-10-28T06:11:03.074Z,962.6157837
2022-10-28T06:12:04.337Z,962.5709229
2022-10-28T06:13:04.953Z,962.5651855
2022-10-28T06:14:05.521Z,962.5307617
2022-10-28T06:15:06.048Z,962.5829468
2022-10-28T06:16:06.516Z,962.5722046
2022-10-28T06:17:06.985Z,962.5629883
2022-10-28T06:18:07.528Z,962.597168
2022-10-28T06:19:08.023Z,962.6970215
2022-10-28T06:20:08.602Z,962.6155396
2022-10-28T06:21:39.723Z,962.6748657
2022-10-28T06:22:41.104Z,962.6540527
2022-10-28T06:23:41.798Z,962.6752319
2022-10-28T06:24:42.410Z,962.6557007
2022-10-28T06:25:42.984Z,962.6726685
2022-10-28T06:26:43.459Z,962.6629028
2022-10-28T06:27:43.955Z,962.6222534
2022-10-28T06:28:44.590Z,962.6265869
2022-10-28T06:29:45.219Z,962.6706543
2022-10-28T06:30:45.788Z,962.7009277
2022-10-28T06:31:47.118Z,962.7416382
2022-10-28T06:32:47.669Z,962.7514648
2022-10-28T06:33:48.389Z,962.749939
2022-10-28T06:34:49.171Z,962.7606812
2022-10-28T06:35:49.849Z,962.739502
2022-10-28T06:36:50.417Z,962.757019
2022-10-28T06:37:51.198Z,962.8226318
2022-10-28T06:38:51.474Z,962.8052979
2022-10-28T06:39:52.109Z,962.803894
2022-10-28T06:40:52.815Z,962.8224487
2022-10-28T06:41:53.965Z,962.8833008
2022-10-28T06:42:54.781Z,962.8404541
2022-10-28T06:43:55.005Z,962.8474731
2022-10-28T06:44:55.587Z,962.8328247
2022-10-28T06:45:56.099Z,962.8590088
2022-10-28T06:46:58.105Z,962.8314209
2022-10-28T06:47:58.585Z,962.7949829
2022-10-28T06:48:59.096Z,962.8123169
2022-10-28T06:49:59.615Z,962.8150024
2022-10-28T06:51:00.149Z,962.7684326
2022-10-28T06:52:01.411Z,962.7548218
2022-10-28T06:53:02.659Z,962.7345581
2022-10-28T06:54:03.258Z,962.7282104
2022-10-28T06:55:03.779Z,962.6809082
2022-10-28T06:56:04.467Z,962.756958
2022-10-28T06:57:05.034Z,962.7400513
2022-10-28T06:58:05.546Z,962.7912598
2022-10-28T06:59:06.031Z,962.8340454
2022-10-28T07:00:06.506Z,962.8656006
2022-10-28T07:01:07.099Z,962.8460693
2022-10-28T07:02:08.675Z,962.9302979
2022-10-28T07:03:09.064Z,962.9296875
2022-10-28T07:04:09.553Z,962.9921875
2022-10-28T07:05:40.452Z,962.9489136
2022-10-28T07:06:41.056Z,962.998291
2022-10-28T07:07:41.666Z,962.9437256
2022-10-28T07:08:42.179Z,962.9177856
2022-10-28T07:09:43.206Z,962.9465332
2022-10-28T07:10:43.649Z,962.9873657
2022-10-28T07:11:45.193Z,962.9820557
2022-10-28T07:12:45.881Z,962.9634399
2022-10-28T07:13:48.871Z,962.9342041
2022-10-28T07:14:46.974Z,962.9081421
2022-10-28T07:15:47.426Z,962.9070435
2022-10-28T07:16:47.977Z,962.8875122
2022-10-28T07:17:49.228Z,962.8549805
2022-10-28T07:18:49.854Z,962.8723145
2022-10-28T07:19:50.623Z,962.8945313
2022-10-28T07:20:51.095Z,962.8989258
2022-10-28T07:21:52.260Z,962.9282837
2022-10-28T07:22:52.993Z,962.9325562
2022-10-28T07:23:53.390Z,962.977356
2022-10-28T07:24:54.691Z,962.9222412
2022-10-28T07:25:55.317Z,963.0170288
2022-10-28T07:26:57.779Z,963.0310669
2022-10-28T07:27:56.837Z,963.0396729
2022-10-28T07:28:56.973Z,963.0896606
2022-10-28T07:29:57.582Z,963.0881958
2022-10-28T07:30:58.130Z,963.0842896
2022-10-28T07:31:59.211Z,963.0681152
2022-10-28T07:32:59.780Z,963.0415039
2022-10-28T07:34:00.437Z,963.1018677
2022-10-28T07:35:01.065Z,963.1104736
2022-10-28T07:36:01.639Z,963.1361084
2022-10-28T07:37:02.089Z,963.085022
2022-10-28T07:38:02.557Z,963.1170044
2022-10-28T07:39:03.165Z,963.1400146
2022-10-28T07:40:03.700Z,963.1540527
2022-10-28T07:41:04.209Z,963.2285767
2022-10-28T07:42:05.707Z,963.2893677
2022-10-28T07:43:06.096Z,963.2803345
2022-10-28T07:44:06.715Z,963.2976685
2022-10-28T07:45:08.226Z,963.2879639
2022-10-28T07:46:08.748Z,963.3466187
2022-10-28T07:47:09.794Z,963.3396606
2022-10-28T07:48:40.394Z,963.2976685
2022-10-28T07:49:40.937Z,963.3128662
2022-10-28T07:50:41.556Z,963.3259888
2022-10-28T07:51:42.134Z,963.3765869
2022-10-28T07:52:43.436Z,963.3303223
2022-10-28T07:53:43.896Z,963.3363037
2022-10-28T07:54:45.217Z,963.3649902
2022-10-28T07:55:45.746Z,963.3384399
2022-10-28T07:56:46.246Z,963.3325806
2022-10-28T07:58:48.220Z,963.3890381
2022-10-28T07:58:51.133Z,963.3989258
2022-10-28T07:59:48.808Z,963.3591309
2022-10-28T08:00:49.494Z,963.3591919
2022-10-28T08:01:50.027Z,963.3401489
2022-10-28T08:02:51.028Z,963.3401489
2022-10-28T08:03:51.498Z,963.3288574
2022-10-28T08:04:52.048Z,963.3585815
2022-10-28T08:05:56.289Z,963.3473511
2022-10-28T08:07:53.776Z,963.295105
2022-10-28T08:08:54.141Z,963.3278198
2022-10-28T08:09:54.726Z,963.3137207
2022-10-28T08:10:55.272Z,963.3261108
2022-10-28T08:11:56.796Z,963.3234253
2022-10-28T08:12:57.326Z,963.2957764
2022-10-28T08:13:58.467Z,963.324707
2022-10-28T08:14:58.965Z,963.3181763
2022-10-28T08:15:59.569Z,963.3203125
2022-10-28T08:17:00.118Z,963.3049927
2022-10-28T08:18:00.594Z,963.3452148
2022-10-28T08:19:02.922Z,963.3372803
2022-10-28T08:20:01.495Z,963.324707
2022-10-28T08:21:02.105Z,963.326416
2022-10-28T08:22:03.195Z,963.3616943
2022-10-28T08:23:05.376Z,963.3050537
2022-10-28T08:24:04.277Z,963.3175049
2022-10-28T08:25:04.764Z,963.3512573
2022-10-28T08:26:05.287Z,963.3693848
2022-10-28T08:27:05.877Z,963.3867798
2022-10-28T08:28:06.597Z,963.37854
2022-10-28T08:29:07.061Z,963.3779907
2022-10-28T08:30:07.544Z,963.4101563
2022-10-28T08:31:09.155Z,963.4390869
2022-10-28T08:32:09.698Z,963.4628906
2022-10-28T08:33:40.542Z,963.5064087
2022-10-28T08:34:43.534Z,963.5119019
2022-10-28T08:35:41.428Z,963.5309448
2022-10-28T08:36:42.112Z,963.5304565
2022-10-28T08:37:42.620Z,963.4765625
2022-10-28T08:38:45.779Z,963.5625
2022-10-28T08:39:43.591Z,963.4716187
2022-10-28T08:40:44.065Z,963.4848633
2022-10-28T08:41:44.493Z,963.4901733
2022-10-28T08:42:45.972Z,963.5061035
2022-10-28T08:43:57.106Z,963.5218506
2022-10-28T08:44:47.087Z,963.5449829
2022-10-28T08:45:47.497Z,963.534668
2022-10-28T08:46:47.963Z,963.5187378
2022-10-28T08:47:48.593Z,963.4742432
2022-10-28T08:48:49.141Z,963.4698486
2022-10-28T08:49:49.707Z,963.4404907
2022-10-28T08:50:50.506Z,963.4333496
2022-10-28T08:51:51.040Z,963.430603
2022-10-28T08:52:52.851Z,963.383728
2022-10-28T08:53:53.086Z,963.4224854
2022-10-28T08:54:54.182Z,963.4501343
2022-10-28T08:55:54.655Z,963.4735107
2022-10-28T08:56:55.135Z,963.4985352
2022-10-28T08:57:55.603Z,963.4745483
2022-10-28T08:58:56.740Z,963.491394
2022-10-28T08:59:57.255Z,963.4403687
2022-10-28T09:00:57.927Z,963.4157104
2022-10-28T09:01:58.349Z,963.4142456
2022-10-28T09:02:59.434Z,963.4221802
2022-10-28T09:04:00.042Z,963.3869019
2022-10-28T09:05:00.657Z,963.3798218
2022-10-28T09:06:01.187Z,963.3894653
2022-10-28T09:07:01.701Z,963.3742676
2022-10-28T09:08:02.166Z,963.2924805
2022-10-28T09:09:03.535Z,963.2597046
2022-10-28T09:10:03.261Z,963.2232666
2022-10-28T09:11:03.885Z,963.2029419
2022-10-28T09:12:04.355Z,963.2090454
2022-10-28T09:13:05.410Z,963.1265869
2022-10-28T09:14:06.795Z,963.1408691
2022-10-28T09:15:07.464Z,963.0906982
2022-10-28T09:16:10.263Z,963.1906128
2022-10-28T09:17:40.178Z,963.2449951
2022-10-28T09:18:40.667Z,963.2340698
2022-10-28T09:19:41.445Z,963.1889038
2022-10-28T09:20:42.106Z,963.0825195
2022-10-28T09:21:42.660Z,963.050293
2022-10-28T09:22:43.688Z,963.1108398
2022-10-28T09:23:44.197Z,963.1901855
2022-10-28T09:24:45.777Z,963.2279053
2022-10-28T09:25:46.378Z,963.2165527
2022-10-28T09:26:47.096Z,963.2425537
2022-10-28T09:27:47.537Z,963.1940918
2022-10-28T09:28:47.975Z,963.2536621
2022-10-28T09:29:48.684Z,963.2636108
2022-10-28T09:30:49.378Z,963.2319336
2022-10-28T09:31:49.964Z,963.2579956
2022-10-28T09:32:51.382Z,963.2462769
2022-10-28T09:33:51.637Z,963.2120361
2022-10-28T09:34:52.386Z,963.3148193
2022-10-28T09:35:53.045Z,963.3234863
2022-10-28T09:36:53.741Z,963.340332
2022-10-28T09:37:54.195Z,963.3773193
2022-10-28T09:38:55.189Z,963.3499756
2022-10-28T09:39:55.842Z,963.399353
2022-10-28T09:40:56.451Z,963.4375
2022-10-28T09:41:57.112Z,963.428772
2022-10-28T09:42:58.461Z,963.4564209
2022-10-28T09:43:58.952Z,963.4240723
2022-10-28T09:44:59.829Z,963.4050293
2022-10-28T09:46:00.229Z,963.3995361
2022-10-28T09:47:00.847Z,963.3764038
2022-10-28T09:48:02.156Z,963.4082642
2022-10-28T09:49:02.633Z,963.3701782
2022-10-28T09:50:03.101Z,963.3476563
2022-10-28T09:51:03.775Z,963.3920288
2022-10-28T09:52:04.525Z,963.3636475
2022-10-28T09:53:06.014Z,963.3873291
2022-10-28T09:54:07.403Z,963.4597168
2022-10-28T09:55:38.581Z,963.3995361
2022-10-28T09:56:39.199Z,963.3397827
2022-10-28T09:57:39.912Z,963.3866577
2022-10-28T09:58:40.393Z,963.3848267
2022-10-28T09:59:40.871Z,963.3492432
2022-10-28T10:00:41.436Z,963.2887573
2022-10-28T10:01:42.213Z,963.284668
2022-10-28T10:02:43.788Z,963.2926025
2022-10-28T10:03:44.431Z,963.3132935
2022-10-28T10:04:44.953Z,963.2835693
2022-10-28T10:05:45.441Z,963.2281494
2022-10-28T10:06:46.011Z,963.189209
2022-10-28T10:07:46.749Z,963.2062988
2022-10-28T10:08:47.575Z,963.1881104
2022-10-28T10:09:48.050Z,963.2195435
2022-10-28T10:10:48.573Z,963.217041
2022-10-28T10:11:49.003Z,963.2184448
2022-10-28T10:12:52.408Z,963.1762695
2022-10-28T10:13:51.428Z,963.1950073
2022-10-28T10:14:52.039Z,963.2329712
2022-10-28T10:15:52.621Z,963.2435913
2022-10-28T10:16:53.209Z,963.2366943
2022-10-28T10:17:53.818Z,963.2462769
2022-10-28T10:18:55.062Z,963.2354736
2022-10-28T10:19:55.599Z,963.2014771
2022-10-28T10:20:56.085Z,963.2103882
2022-10-28T10:21:56.523Z,963.211731
2022-10-28T10:22:57.913Z,963.2251587
2022-10-28T10:23:58.907Z,963.199585
2022-10-28T10:24:59.345Z,963.1990356
2022-10-28T10:25:59.816Z,963.1623535
2022-10-28T10:27:00.214Z,963.1489258
2022-10-28T10:28:00.750Z,963.1278687
2022-10-28T10:29:01.340Z,963.1151733
2022-10-28T10:30:01.862Z,963.0928345
2022-10-28T10:31:02.357Z,963.0610962
2022-10-28T10:32:02.772Z,963.0745239
2022-10-28T10:33:04.191Z,963.0675659
2022-10-28T10:34:04.709Z,963.0701294
2022-10-28T10:35:05.261Z,963.0999756
2022-10-28T10:36:05.805Z,963.1734619
2022-10-28T10:37:06.262Z,963.1713867
2022-10-28T10:38:06.700Z,963.1815796
2022-10-28T10:39:07.613Z,963.1281128
2022-10-28T10:40:38.296Z,963.1104126
2022-10-28T10:41:38.726Z,963.0926514
2022-10-28T10:42:46.666Z,963.1099854
2022-10-28T10:43:40.555Z,963.0880737
2022-10-28T10:44:41.082Z,963.086731
2022-10-28T10:45:41.612Z,963.062439
2022-10-28T10:46:42.114Z,963.0692749
2022-10-28T10:47:42.515Z,963.0865479
2022-10-28T10:48:43.082Z,963.1322021
2022-10-28T10:49:43.634Z,963.1298218
2022-10-28T10:50:44.156Z,963.1465454
2022-10-28T10:51:44.641Z,963.15271
2022-10-28T10:52:45.682Z,963.1333618
2022-10-28T10:53:47.229Z,963.1123657
2022-10-28T10:54:47.781Z,963.1279907
2022-10-28T10:55:48.238Z,963.1260376
2022-10-28T10:56:48.770Z,963.1292114
2022-10-28T10:57:49.108Z,963.105957
2022-10-28T10:58:49.629Z,963.1127319
2022-10-28T10:59:50.077Z,963.0504761
2022-10-28T11:00:50.811Z,962.9926758
2022-10-28T11:01:51.364Z,963.0161743
2022-10-28T11:02:55.044Z,963.0342407
2022-10-28T11:03:53.074Z,962.9934082
2022-10-28T11:04:53.552Z,962.9714355
2022-10-28T11:05:59.993Z,962.9995117